createdAt,value
2022-08-24T00:02:06.665Z,4.10
2022-08-24T00:04:36.003Z,2.80
2022-08-24T00:07:05.413Z,4.68
2022-08-24T00:09:42.302Z,2.83
2022-08-24T00:12:19.810Z,1.90
2022-08-24T00:14:51.499Z,2.42
2022-08-24T00:17:22.765Z,3.22
2022-08-24T00:19:54.556Z,3.45
2022-08-24T00:22:23.558Z,3.30
2022-08-24T00:24:59.779Z,3.42
2022-08-24T00:27:28.151Z,4.03
2022-08-24T00:29:57.212Z,4.95
2022-08-24T00:32:25.538Z,3.25
2022-08-24T00:35:01.520Z,5.95
2022-08-24T00:37:30.322Z,4.05
2022-08-24T00:40:02.824Z,3.75
2022-08-24T00:42:37.267Z,4.18
2022-08-24T00:45:17.416Z,4.93
2022-08-24T00:47:48.904Z,4.47
2022-08-24T00:50:31.301Z,5.45
2022-08-24T00:53:18.808Z,7.60
2022-08-24T00:55:54.336Z,5.88
2022-08-24T00:58:34.016Z,6.70
2022-08-24T01:01:06.564Z,5.55
2022-08-24T01:03:42.011Z,4.70
2022-08-24T01:06:12.738Z,8.00
2022-08-24T01:08:42.060Z,6.45
2022-08-24T01:11:17.469Z,4.90
2022-08-24T01:13:49.923Z,4.43
2022-08-24T01:16:41.524Z,4.38
2022-08-24T01:19:19.939Z,4.85
2022-08-24T01:21:59.463Z,6.78
2022-08-24T01:24:29.195Z,7.18
2022-08-24T01:26:57.761Z,6.13
2022-08-24T01:29:31.439Z,8.55
2022-08-24T01:32:00.593Z,8.98
2022-08-24T01:34:31.820Z,6.72
2022-08-24T01:37:01.047Z,5.68
2022-08-24T01:39:35.495Z,5.05
2022-08-24T01:42:04.740Z,5.22
2022-08-24T01:44:37.487Z,4.57
2022-08-24T01:47:08.048Z,4.50
2022-08-24T01:49:39.630Z,5.15
2022-08-24T01:52:11.117Z,4.40
2022-08-24T01:54:43.538Z,5.88
2022-08-24T01:57:16.313Z,4.57
2022-08-24T01:59:46.978Z,4.78
2022-08-24T02:02:20.724Z,4.75
2022-08-24T02:04:52.177Z,5.32
2022-08-24T02:07:21.933Z,5.18
2022-08-24T02:09:53.101Z,5.28
2022-08-24T02:12:23.986Z,5.95
2022-08-24T02:14:52.622Z,4.70
2022-08-24T02:17:24.960Z,5.03
2022-08-24T02:19:59.372Z,5.75
2022-08-24T02:22:27.840Z,5.40
2022-08-24T02:24:57.715Z,8.57
2022-08-24T02:27:29.860Z,4.22
2022-08-24T02:29:58.177Z,4.80
2022-08-24T02:32:26.540Z,5.22
2022-08-24T02:34:55.071Z,5.32
2022-08-24T02:37:23.921Z,4.95
2022-08-24T02:39:53.588Z,7.82
2022-08-24T02:42:25.597Z,6.05
2022-08-24T02:44:55.917Z,7.32
2022-08-24T02:47:38.391Z,6.72
2022-08-24T02:50:12.042Z,7.40
2022-08-24T02:52:40.975Z,12.95
2022-08-24T02:55:20.049Z,7.40
2022-08-24T02:57:52.191Z,7.65
2022-08-24T03:00:23.664Z,9.15
2022-08-24T03:02:52.609Z,7.30
2022-08-24T03:05:29.208Z,6.65
2022-08-24T03:08:00.100Z,7.93
2022-08-24T03:10:38.160Z,7.28
2022-08-24T03:13:09.288Z,6.75
2022-08-24T03:15:37.772Z,7.82
2022-08-24T03:18:06.282Z,7.03
2022-08-24T03:20:37.513Z,8.13
2022-08-24T03:23:06.400Z,6.55
2022-08-24T03:25:35.068Z,8.10
2022-08-24T03:28:11.075Z,8.98
2022-08-24T03:30:46.788Z,6.30
2022-08-24T03:33:19.096Z,7.20
2022-08-24T03:35:47.594Z,7.93
2022-08-24T03:38:18.410Z,8.70
2022-08-24T03:40:47.692Z,8.35
2022-08-24T03:43:30.296Z,5.85
2022-08-24T03:46:03.118Z,9.02
2022-08-24T03:48:32.390Z,8.57
2022-08-24T03:51:00.915Z,6.35
2022-08-24T03:53:29.381Z,7.80
2022-08-24T03:55:58.165Z,6.95
2022-08-24T03:58:28.303Z,6.65
2022-08-24T04:00:58.557Z,10.88
2022-08-24T04:03:28.363Z,8.55
2022-08-24T04:06:02.004Z,6.65
2022-08-24T04:08:31.478Z,8.43
2022-08-24T04:11:04.010Z,8.27
2022-08-24T04:13:32.913Z,7.82
2022-08-24T04:16:07.091Z,9.73
2022-08-24T04:18:37.185Z,11.57
2022-08-24T04:21:08.140Z,7.97
2022-08-24T04:23:47.603Z,8.02
2022-08-24T04:26:32.463Z,9.48
2022-08-24T04:29:09.448Z,7.63
2022-08-24T04:31:43.846Z,11.05
2022-08-24T04:34:16.598Z,7.18
2022-08-24T04:36:46.364Z,9.57
2022-08-24T04:39:18.645Z,9.13
2022-08-24T04:42:22.382Z,7.82
2022-08-24T04:44:52.595Z,10.35
2022-08-24T04:47:24.322Z,8.43
2022-08-24T04:49:57.243Z,11.27
2022-08-24T04:52:29.460Z,7.68
2022-08-24T04:54:58.465Z,9.15
2022-08-24T04:57:31.883Z,9.60
2022-08-24T05:00:03.645Z,8.63
2022-08-24T05:02:36.204Z,9.60
2022-08-24T05:05:09.974Z,6.95
2022-08-24T05:07:41.321Z,7.75
2022-08-24T05:10:15.522Z,7.35
2022-08-24T05:12:46.974Z,8.55
2022-08-24T05:15:19.832Z,8.52
2022-08-24T05:17:51.188Z,8.38
2022-08-24T05:20:23.100Z,8.73
2022-08-24T05:22:58.136Z,10.73
2022-08-24T05:25:31.687Z,9.98
2022-08-24T05:28:00.921Z,8.65
2022-08-24T05:30:32.388Z,10.23
2022-08-24T05:33:05.901Z,8.82
2022-08-24T05:35:43.687Z,9.00
2022-08-24T05:38:12.638Z,9.57
2022-08-24T05:40:41.341Z,9.45
2022-08-24T05:43:10.056Z,10.10
2022-08-24T05:45:43.419Z,9.70
2022-08-24T05:48:12.900Z,9.40
2022-08-24T05:50:55.314Z,12.90
2022-08-24T05:53:27.466Z,12.70
2022-08-24T05:56:03.329Z,10.35
2022-08-24T05:58:31.704Z,11.98
2022-08-24T06:01:07.477Z,10.38
2022-08-24T06:03:37.072Z,9.95
2022-08-24T06:06:11.654Z,10.18
2022-08-24T06:08:42.463Z,12.82
2022-08-24T06:11:12.861Z,9.82
2022-08-24T06:13:43.600Z,11.07
2022-08-24T06:16:21.766Z,11.25
2022-08-24T06:18:55.302Z,11.07
2022-08-24T06:21:28.690Z,11.63
2022-08-24T06:24:01.383Z,12.02
2022-08-24T06:26:50.000Z,12.70
2022-08-24T06:29:22.378Z,11.15
2022-08-24T06:31:56.232Z,12.15
2022-08-24T06:34:27.071Z,11.27
2022-08-24T06:36:56.994Z,14.75
2022-08-24T06:39:28.020Z,11.65
2022-08-24T06:41:58.339Z,9.60
2022-08-24T06:44:34.845Z,12.93
2022-08-24T06:47:16.100Z,10.73
2022-08-24T06:49:44.844Z,10.05
2022-08-24T06:52:16.879Z,14.15
2022-08-24T06:54:47.126Z,12.13
2022-08-24T06:57:15.612Z,14.80
2022-08-24T06:59:44.913Z,14.43
2022-08-24T07:02:18.941Z,14.70
2022-08-24T07:04:51.051Z,15.10
2022-08-24T07:07:43.112Z,14.00
2022-08-24T07:10:12.533Z,11.98
2022-08-24T07:12:40.884Z,12.32
2022-08-24T07:15:17.191Z,14.80
2022-08-24T07:17:53.511Z,11.57
2022-08-24T07:20:22.517Z,16.67
2022-08-24T07:23:15.031Z,12.98
2022-08-24T07:25:49.634Z,13.07
2022-08-24T07:28:31.490Z,13.95
2022-08-24T07:31:02.051Z,13.73
2022-08-24T07:33:37.605Z,14.90
2022-08-24T07:36:07.407Z,12.45
2022-08-24T07:38:42.155Z,11.80
2022-08-24T07:41:38.202Z,11.68
2022-08-24T07:44:06.567Z,9.30
2022-08-24T07:46:42.956Z,11.88
2022-08-24T07:49:33.112Z,6.45
2022-08-24T07:52:05.309Z,9.52
2022-08-24T07:54:36.339Z,7.45
2022-08-24T07:57:09.155Z,10.02
2022-08-24T07:59:38.988Z,8.75
2022-08-24T08:02:11.865Z,7.50
2022-08-24T08:04:48.693Z,7.32
2022-08-24T08:07:19.815Z,9.27
2022-08-24T08:09:53.770Z,9.30
2022-08-24T08:12:22.255Z,10.75
2022-08-24T08:14:57.481Z,10.13
2022-08-24T08:17:26.458Z,11.68
2022-08-24T08:19:56.012Z,12.15
2022-08-24T08:22:42.926Z,8.60
2022-08-24T08:25:54.576Z,11.55
2022-08-24T08:28:37.732Z,9.90
2022-08-24T08:31:07.445Z,10.80
2022-08-24T08:33:37.251Z,8.32
2022-08-24T08:36:09.155Z,7.78
2022-08-24T08:38:43.114Z,7.28
2022-08-24T08:41:40.900Z,10.25
2022-08-24T08:44:19.303Z,6.60
2022-08-24T08:46:56.729Z,11.00
2022-08-24T08:50:03.136Z,6.43
2022-08-24T08:53:10.037Z,6.85
2022-08-24T08:55:47.063Z,5.28
2022-08-24T08:58:42.625Z,5.03
2022-08-24T09:01:32.832Z,5.40
2022-08-24T09:04:28.489Z,8.00
2022-08-24T09:07:22.438Z,4.80
2022-08-24T09:10:18.834Z,6.07
2022-08-24T09:13:10.164Z,6.22
2022-08-24T09:15:59.905Z,5.00
2022-08-24T09:18:49.459Z,6.78
2022-08-24T09:21:35.462Z,8.43
2022-08-24T09:24:20.325Z,4.53
2022-08-24T09:26:59.801Z,3.35
2022-08-24T09:29:48.557Z,6.20
2022-08-24T09:32:36.318Z,7.75
2022-08-24T09:35:09.776Z,4.18
2022-08-24T09:37:57.339Z,5.15
2022-08-24T09:40:38.209Z,5.35
2022-08-24T09:43:38.045Z,5.47
2022-08-24T09:46:34.844Z,5.60
2022-08-24T09:49:39.528Z,5.53
2022-08-24T09:52:38.987Z,4.63
2022-08-24T09:55:46.267Z,5.97
2022-08-24T09:58:26.638Z,4.57
2022-08-24T10:01:04.949Z,7.68
2022-08-24T10:03:52.388Z,5.10
2022-08-24T10:06:33.738Z,5.15
2022-08-24T10:09:14.890Z,4.32
2022-08-24T10:11:59.245Z,6.13
2022-08-24T10:14:42.540Z,5.97
2022-08-24T10:17:19.227Z,5.03
2022-08-24T10:20:06.662Z,4.03
2022-08-24T10:23:00.313Z,6.65
2022-08-24T10:25:34.763Z,4.32
2022-08-24T10:28:25.672Z,3.70
2022-08-24T10:31:12.542Z,5.82
2022-08-24T10:33:57.230Z,4.63
2022-08-24T10:36:56.754Z,3.80
2022-08-24T10:39:53.091Z,6.10
2022-08-24T10:43:00.375Z,4.18
2022-08-24T10:45:53.144Z,3.35
2022-08-24T10:49:04.601Z,4.53
2022-08-24T10:51:43.961Z,2.90
2022-08-24T10:54:13.774Z,5.10
2022-08-24T10:56:56.976Z,3.15
2022-08-24T10:59:29.789Z,3.67
2022-08-24T11:02:06.677Z,3.38
2022-08-24T11:04:41.730Z,5.13
2022-08-24T11:07:18.685Z,2.40
2022-08-24T11:09:56.278Z,2.47
2022-08-24T11:12:30.132Z,4.57
2022-08-24T11:15:01.890Z,4.00
2022-08-24T11:17:35.059Z,2.78
2022-08-24T11:20:05.818Z,2.53
2022-08-24T11:22:40.895Z,2.58
2022-08-24T11:25:15.596Z,4.68
2022-08-24T11:27:49.406Z,2.15
2022-08-24T11:30:26.465Z,4.07
2022-08-24T11:32:57.558Z,3.63
2022-08-24T11:35:31.978Z,2.88
2022-08-24T11:38:10.207Z,1.35
2022-08-24T11:40:57.102Z,4.57
2022-08-24T11:43:54.536Z,2.03
2022-08-24T11:46:33.557Z,3.33
2022-08-24T11:49:11.446Z,3.10
2022-08-24T11:51:50.958Z,2.78
2022-08-24T11:54:28.061Z,3.53
2022-08-24T11:57:11.922Z,2.58
2022-08-24T11:59:49.005Z,3.08
2022-08-24T12:02:28.205Z,2.22
2022-08-24T12:05:03.486Z,1.55
2022-08-24T12:07:50.897Z,2.40
2022-08-24T12:10:32.876Z,1.67
2022-08-24T12:13:07.704Z,2.28
2022-08-24T12:15:51.798Z,2.58
2022-08-24T12:18:31.104Z,4.20
2022-08-24T12:21:01.509Z,1.98
2022-08-24T12:23:38.449Z,4.18
2022-08-24T12:26:11.332Z,1.77
2022-08-24T12:28:42.299Z,2.65
2022-08-24T12:31:21.846Z,2.75
2022-08-24T12:33:57.813Z,2.85
2022-08-24T12:36:33.368Z,2.60
2022-08-24T12:39:09.046Z,4.32
2022-08-24T12:41:45.115Z,2.83
2022-08-24T12:44:18.386Z,2.95
2022-08-24T12:46:54.426Z,2.50
2022-08-24T12:49:29.198Z,1.90
2022-08-24T12:52:21.909Z,2.50
2022-08-24T12:55:19.185Z,1.63
2022-08-24T12:57:59.934Z,2.65
2022-08-24T13:00:37.362Z,3.92
2022-08-24T13:03:11.074Z,1.75
2022-08-24T13:05:44.839Z,3.08
2022-08-24T13:08:21.526Z,1.20
2022-08-24T13:10:56.081Z,1.42
2022-08-24T13:13:43.583Z,1.73
2022-08-24T13:16:13.139Z,4.70
2022-08-24T13:19:20.310Z,1.50
2022-08-24T13:21:57.277Z,2.40
2022-08-24T13:24:47.813Z,1.77
2022-08-24T13:27:58.199Z,1.20
2022-08-24T13:30:35.647Z,1.63
2022-08-24T13:33:09.205Z,1.13
2022-08-24T13:35:59.993Z,3.05
2022-08-24T13:38:59.333Z,1.38
2022-08-24T13:41:42.801Z,2.45
2022-08-24T13:44:23.795Z,1.27
2022-08-24T13:47:04.557Z,2.13
2022-08-24T13:50:03.999Z,1.25
2022-08-24T13:52:48.346Z,0.93
2022-08-24T13:55:36.996Z,3.88
2022-08-24T13:58:27.014Z,1.40
2022-08-24T14:01:01.970Z,1.10
2022-08-24T14:04:00.110Z,1.27
2022-08-24T14:06:43.505Z,1.67
2022-08-24T14:09:39.225Z,1.92
2022-08-24T14:12:25.113Z,1.50
2022-08-24T14:15:13.059Z,1.05
2022-08-24T14:17:56.447Z,2.13
2022-08-24T14:20:59.857Z,1.80
2022-08-24T14:23:35.777Z,2.28
2022-08-24T14:26:41.414Z,1.67
2022-08-24T14:29:46.774Z,2.28
2022-08-24T14:32:36.038Z,2.67
2022-08-24T14:35:24.616Z,2.35
2022-08-24T14:38:10.644Z,2.03
2022-08-24T14:40:57.801Z,4.32
2022-08-24T14:43:33.676Z,1.95
2022-08-24T14:46:13.415Z,1.42
2022-08-24T14:48:55.198Z,3.45
2022-08-24T14:51:54.623Z,1.25
2022-08-24T14:54:33.079Z,2.15
2022-08-24T14:57:21.052Z,2.58
2022-08-24T15:00:04.725Z,2.42
2022-08-24T15:03:16.713Z,1.45
2022-08-24T15:06:26.114Z,2.50
2022-08-24T15:09:16.140Z,1.60
2022-08-24T15:11:45.643Z,2.70
2022-08-24T15:14:37.729Z,2.63
2022-08-24T15:17:16.985Z,1.48
2022-08-24T15:19:55.024Z,2.53
2022-08-24T15:22:30.906Z,2.22
2022-08-24T15:25:14.681Z,1.50
2022-08-24T15:27:55.017Z,1.10
2022-08-24T15:30:27.342Z,1.33
2022-08-24T15:33:10.607Z,2.63
2022-08-24T15:35:45.795Z,1.13
2022-08-24T15:38:25.957Z,2.58
2022-08-24T15:41:05.243Z,2.20
2022-08-24T15:43:33.932Z,1.58
2022-08-24T15:46:10.687Z,3.55
2022-08-24T15:48:44.018Z,2.50
2022-08-24T15:51:37.188Z,1.10
2022-08-24T15:54:34.587Z,1.85
2022-08-24T15:57:05.563Z,2.65
2022-08-24T15:59:48.505Z,2.22
2022-08-24T16:02:29.117Z,3.00
2022-08-24T16:05:10.815Z,2.97
2022-08-24T16:08:11.698Z,2.45
2022-08-24T16:10:46.577Z,2.15
2022-08-24T16:13:25.202Z,2.20
2022-08-24T16:16:03.917Z,2.30
2022-08-24T16:18:58.420Z,1.73
2022-08-24T16:21:33.916Z,1.95
2022-08-24T16:24:13.052Z,2.17
2022-08-24T16:26:58.104Z,3.63
2022-08-24T16:29:55.774Z,1.88
2022-08-24T16:32:41.589Z,2.28
2022-08-24T16:35:21.504Z,2.83
2022-08-24T16:37:54.874Z,2.95
2022-08-24T16:40:25.201Z,2.58
2022-08-24T16:42:55.321Z,2.92
2022-08-24T16:45:26.817Z,2.38
2022-08-24T16:47:56.197Z,3.67
2022-08-24T16:50:28.252Z,3.95
2022-08-24T16:52:58.190Z,2.90
2022-08-24T16:55:28.716Z,1.48
2022-08-24T16:57:57.249Z,1.92
2022-08-24T17:00:25.605Z,3.70
2022-08-24T17:02:57.880Z,1.60
2022-08-24T17:05:29.386Z,2.50
2022-08-24T17:08:02.022Z,1.95
2022-08-24T17:10:38.028Z,3.97
2022-08-24T17:13:07.449Z,3.58
2022-08-24T17:15:39.468Z,2.42
2022-08-24T17:18:11.029Z,3.10
2022-08-24T17:20:39.854Z,2.83
2022-08-24T17:23:10.465Z,4.28
2022-08-24T17:25:42.000Z,2.20
2022-08-24T17:28:16.234Z,3.47
2022-08-24T17:30:47.608Z,3.45
2022-08-24T17:33:19.482Z,3.10
2022-08-24T17:35:48.139Z,3.47
2022-08-24T17:38:16.955Z,2.67
2022-08-24T17:40:47.924Z,4.10
2022-08-24T17:43:16.502Z,2.72
2022-08-24T17:45:52.425Z,1.98
2022-08-24T17:48:25.546Z,2.05
2022-08-24T17:50:56.224Z,3.95
2022-08-24T17:53:30.623Z,2.00
2022-08-24T17:56:00.444Z,2.95
2022-08-24T17:58:29.567Z,5.95
2022-08-24T18:01:01.282Z,4.30
2022-08-24T18:03:29.782Z,6.57
2022-08-24T18:06:01.737Z,5.85
2022-08-24T18:08:30.190Z,3.55
2022-08-24T18:10:58.924Z,3.63
2022-08-24T18:13:28.643Z,3.60
2022-08-24T18:15:59.691Z,3.47
2022-08-24T18:18:38.417Z,3.92
2022-08-24T18:21:06.822Z,5.03
2022-08-24T18:23:35.767Z,3.47
2022-08-24T18:26:19.633Z,3.13
2022-08-24T18:28:55.308Z,2.83
2022-08-24T18:31:28.569Z,2.38
2022-08-24T18:34:01.925Z,3.22
2022-08-24T18:36:36.600Z,3.70
2022-08-24T18:39:07.313Z,2.75
2022-08-24T18:41:49.163Z,3.40
2022-08-24T18:44:26.243Z,2.42
2022-08-24T18:47:01.347Z,2.85
2022-08-24T18:49:30.146Z,5.47
2022-08-24T18:51:58.973Z,3.80
2022-08-24T18:54:35.588Z,3.17
2022-08-24T18:57:08.708Z,4.82
2022-08-24T18:59:40.834Z,3.90
2022-08-24T19:02:33.586Z,3.33
2022-08-24T19:05:08.409Z,3.53
2022-08-24T19:07:40.582Z,4.97
2022-08-24T19:10:12.030Z,4.65
2022-08-24T19:12:46.848Z,3.22
2022-08-24T19:15:30.906Z,2.70
2022-08-24T19:18:10.944Z,4.38
2022-08-24T19:20:44.744Z,3.13
2022-08-24T19:23:20.632Z,4.47
2022-08-24T19:25:49.559Z,2.22
2022-08-24T19:28:18.831Z,3.20
2022-08-24T19:30:49.720Z,2.88
2022-08-24T19:33:26.741Z,3.78
2022-08-24T19:35:55.740Z,2.97
2022-08-24T19:38:26.418Z,4.07
2022-08-24T19:41:00.854Z,3.35
2022-08-24T19:43:32.706Z,5.18
2022-08-24T19:46:08.540Z,4.03
2022-08-24T19:48:44.607Z,5.07
2022-08-24T19:51:15.170Z,3.72
2022-08-24T19:53:45.688Z,2.60
2022-08-24T19:56:17.160Z,3.70
2022-08-24T19:58:48.028Z,4.03
2022-08-24T20:01:21.090Z,4.93
2022-08-24T20:03:50.496Z,3.67
2022-08-24T20:06:25.960Z,3.95
2022-08-24T20:08:54.685Z,3.55
2022-08-24T20:11:27.758Z,4.88
2022-08-24T20:13:56.189Z,4.07
2022-08-24T20:16:29.630Z,4.90
2022-08-24T20:19:01.901Z,6.03
2022-08-24T20:21:31.645Z,5.18
2022-08-24T20:24:01.260Z,3.53
2022-08-24T20:26:36.042Z,4.18
2022-08-24T20:29:09.582Z,4.78
2022-08-24T20:31:43.721Z,2.88
2022-08-24T20:34:16.644Z,3.00
2022-08-24T20:36:50.923Z,3.85
2022-08-24T20:39:25.705Z,5.38
2022-08-24T20:41:54.437Z,4.40
2022-08-24T20:44:23.264Z,3.92
2022-08-24T20:46:58.337Z,4.20
2022-08-24T20:49:27.928Z,6.13
2022-08-24T20:51:56.737Z,6.50
2022-08-24T20:54:25.130Z,4.60
2022-08-24T20:56:53.651Z,6.22
2022-08-24T20:59:21.995Z,4.47
2022-08-24T21:01:51.535Z,4.05
2022-08-24T21:04:21.164Z,4.60
2022-08-24T21:06:50.802Z,4.10
2022-08-24T21:09:19.746Z,4.38
2022-08-24T21:11:48.322Z,5.35
2022-08-24T21:14:22.111Z,4.70
2022-08-24T21:16:50.609Z,6.00
2022-08-24T21:19:20.298Z,7.35
2022-08-24T21:21:48.678Z,5.43
2022-08-24T21:24:19.952Z,6.28
2022-08-24T21:26:49.189Z,5.30
2022-08-24T21:29:17.756Z,6.93
2022-08-24T21:32:06.250Z,6.18
2022-08-24T21:34:42.860Z,5.05
2022-08-24T21:37:13.470Z,5.90
2022-08-24T21:39:42.670Z,7.03
2022-08-24T21:42:11.284Z,5.25
2022-08-24T21:44:40.526Z,5.50
2022-08-24T21:47:10.692Z,4.55
2022-08-24T21:49:41.258Z,5.38
2022-08-24T21:52:11.230Z,5.88
2022-08-24T21:54:39.564Z,5.50
2022-08-24T21:57:11.800Z,4.97
2022-08-24T21:59:43.206Z,4.50
2022-08-24T22:02:13.488Z,5.20
2022-08-24T22:04:47.209Z,5.60
2022-08-24T22:07:29.113Z,4.50
2022-08-24T22:10:01.268Z,6.70
2022-08-24T22:12:31.102Z,6.32
2022-08-24T22:15:02.383Z,5.85
2022-08-24T22:17:31.172Z,5.07
2022-08-24T22:19:59.820Z,6.97
2022-08-24T22:22:29.634Z,6.13
2022-08-24T22:25:03.844Z,5.15
2022-08-24T22:27:37.534Z,4.25
2022-08-24T22:30:06.732Z,4.97
2022-08-24T22:32:37.863Z,4.13
2022-08-24T22:35:10.117Z,6.32
2022-08-24T22:37:40.402Z,5.03
2022-08-24T22:40:13.041Z,5.60
2022-08-24T22:42:42.074Z,5.57
2022-08-24T22:45:16.759Z,4.93
2022-08-24T22:47:49.740Z,6.15
2022-08-24T22:50:18.250Z,5.72
2022-08-24T22:52:48.702Z,5.18
2022-08-24T22:55:17.060Z,5.93
2022-08-24T22:57:51.320Z,6.55
2022-08-24T23:00:20.468Z,5.72
2022-08-24T23:02:48.813Z,7.00
2022-08-24T23:05:17.389Z,7.25
2022-08-24T23:07:50.552Z,5.40
2022-08-24T23:10:19.072Z,5.72
2022-08-24T23:12:50.344Z,6.22
2022-08-24T23:15:18.862Z,6.15
2022-08-24T23:17:47.166Z,6.53
2022-08-24T23:20:15.078Z,6.88
2022-08-24T23:22:43.706Z,6.10
2022-08-24T23:25:14.624Z,7.43
2022-08-24T23:27:46.620Z,7.47
2022-08-24T23:30:22.083Z,7.10
2022-08-24T23:32:50.718Z,6.68
2022-08-24T23:35:19.084Z,8.90
2022-08-24T23:37:50.375Z,6.85
2022-08-24T23:40:24.583Z,7.25
2022-08-24T23:42:52.960Z,6.43
2022-08-24T23:45:28.128Z,7.95
2022-08-24T23:47:58.520Z,7.38
2022-08-24T23:50:27.078Z,6.03
2022-08-24T23:52:55.383Z,6.65
2022-08-24T23:55:25.182Z,6.97
2022-08-24T23:57:54.429Z,6.53
